Time;durP1;ratioP1;P1;durP2;ratioP2;P2;SDS_P1;SDS_P2;PMS_P1;PMS_P2;Temp;Humidity;BMP_temperature;BMP_pressure;BME280_temperature;BME280_humidity;BME280_pressure;Samples;Min_cycle;Max_cycle;Signal;HPM_P1;HPM_P2
2022/01/25 00:08:38;;;;;;;;;;;-1.00;93.10;;;;;;5033821;28;19959;-76
2022/01/25 00:27:13;;;;;;;;;;;-0.70;92.70;;;;;;5043010;28;19971;-75
2022/01/25 00:32:07;;;;;;;;;;;-0.60;92.50;;;;;;5062919;28;19935;-76
2022/01/25 00:34:34;;;;;;;;;;;-0.60;92.50;;;;;;5071499;28;19929;-75
2022/01/25 00:37:01;;;;;;;;;;;-0.60;92.50;;;;;;5073686;28;19935;-80
2022/01/25 00:39:28;;;;;;;;;;;-0.60;92.50;;;;;;5066386;28;19924;-76
2022/01/25 00:41:55;;;;;;;;;;;-0.60;92.50;;;;;;5069022;28;19932;-77
2022/01/25 00:44:22;;;;;;;;;;;-0.60;92.50;;;;;;5051676;28;19975;-76
2022/01/25 00:46:49;;;;;;;;;;;-0.50;92.50;;;;;;5024848;28;19931;-75
2022/01/25 00:49:26;;;;;;;;;;;-0.50;92.60;;;;;;5065297;28;19978;-77
2022/01/25 00:56:51;;;;;;;;;;;-0.50;92.60;;;;;;5061593;28;20331;-79
2022/01/25 00:59:20;;;;;;;;;;;-0.50;92.70;;;;;;5033392;28;19932;-75
2022/01/25 01:01:48;;;;;;;;;;;-0.50;92.80;;;;;;5025808;28;20293;-75
2022/01/25 01:04:15;;;;;;;;;;;-0.50;92.80;;;;;;5034414;28;19933;-77
2022/01/25 01:06:44;;;;;;;;;;;-0.50;92.70;;;;;;5036705;28;19983;-77
2022/01/25 01:09:11;;;;;;;;;;;-0.50;92.70;;;;;;5070449;28;19932;-77
2022/01/25 01:11:46;;;;;;;;;;;-0.40;92.70;;;;;;5044761;28;19925;-75
2022/01/25 01:17:20;;;;;;;;;;;-0.40;92.90;;;;;;5034115;28;19929;-79
2022/01/25 01:33:51;;;;;;;;;;;-0.40;92.90;;;;;;5071771;28;19929;-78
2022/01/25 01:44:23;;;;;;;;;;;-0.40;93.00;;;;;;5059186;28;19924;-79
2022/01/25 01:49:25;;;;;;;;;;;-0.40;93.00;;;;;;5071848;28;19932;-77
2022/01/25 01:51:52;;;;;;;;;;;-0.40;93.10;;;;;;5063152;28;20455;-75
2022/01/25 01:54:19;;;;;;;;;;;-0.40;93.10;;;;;;5061252;28;20351;-76
2022/01/25 01:56:45;;;;;;;;;;;-0.30;93.00;;;;;;5060503;28;20385;-78
2022/01/25 01:59:14;;;;;;;;;;;-0.30;92.90;;;;;;5038406;28;20381;-75
2022/01/25 02:01:42;;;;;;;;;;;-0.30;93.00;;;;;;5052346;28;20377;-75
2022/01/25 02:04:10;;;;;;;;;;;-0.30;92.90;;;;;;5054254;28;20405;-79
2022/01/25 02:06:37;;;;;;;;;;;-0.30;92.90;;;;;;5055487;28;19924;-75
2022/01/25 02:09:05;;;;;;;;;;;-0.30;92.90;;;;;;5070051;28;19924;-76
2022/01/25 02:11:32;;;;;;;;;;;-0.30;92.90;;;;;;5066215;28;20381;-80
2022/01/25 02:14:04;;;;;;;;;;;-0.30;92.80;;;;;;5063397;28;19925;-75
2022/01/25 02:16:54;;;;;;;;;;;-0.30;92.80;;;;;;5050615;28;19924;-75
2022/01/25 02:24:52;;;;;;;;;;;-0.30;92.60;;;;;;5040390;28;19925;-76
2022/01/25 02:27:19;;;;;;;;;;;-0.30;92.50;;;;;;5042981;28;19928;-75
2022/01/25 02:29:46;;;;;;;;;;;-0.30;92.40;;;;;;5046157;28;19928;-77
2022/01/25 02:32:13;;;;;;;;;;;-0.30;92.40;;;;;;5031182;28;19971;-75
2022/01/25 02:34:40;;;;;;;;;;;-0.30;92.40;;;;;;5042335;28;19925;-75
2022/01/25 02:37:09;;;;;;;;;;;-0.30;92.50;;;;;;5052078;28;19928;-76
2022/01/25 02:39:42;;;;;;;;;;;-0.30;92.50;;;;;;5034449;28;20019;-75
2022/01/25 02:42:13;;;;;;;;;;;-0.30;92.50;;;;;;5053749;28;20394;-77
2022/01/25 02:44:42;;;;;;;;;;;-0.30;92.50;;;;;;5040259;28;20388;-79
2022/01/25 02:49:54;;;;;;;;;;;-0.30;92.20;;;;;;5065783;28;19974;-75
2022/01/25 02:52:22;;;;;;;;;;;-0.30;92.10;;;;;;5050869;28;19987;-77
2022/01/25 02:54:49;;;;;;;;;;;-0.40;92.20;;;;;;5054768;28;19925;-75
2022/01/25 02:57:16;;;;;;;;;;;-0.40;92.20;;;;;;5067813;28;20300;-79
2022/01/25 02:59:43;;;;;;;;;;;-0.40;92.20;;;;;;5044711;28;19925;-79
2022/01/25 03:02:10;;;;;;;;;;;-0.40;92.30;;;;;;5061221;28;20408;-75
2022/01/25 03:04:38;;;;;;;;;;;-0.40;92.40;;;;;;5045281;28;19925;-75
2022/01/25 03:07:05;;;;;;;;;;;-0.40;92.60;;;;;;5045610;28;19928;-79
2022/01/25 03:09:32;;;;;;;;;;;-0.50;92.70;;;;;;5070746;28;19998;-77
2022/01/25 03:12:01;;;;;;;;;;;-0.50;92.80;;;;;;5070192;28;19974;-79
2022/01/25 03:14:32;;;;;;;;;;;-0.40;92.70;;;;;;5038242;28;19985;-79
2022/01/25 03:19:51;;;;;;;;;;;-0.40;92.40;;;;;;5064703;28;20018;-79
2022/01/25 03:25:20;;;;;;;;;;;-0.50;92.30;;;;;;4979884;28;19950;-76
2022/01/25 03:27:46;;;;;;;;;;;-0.50;92.30;;;;;;4974295;28;20410;-79
2022/01/25 03:30:13;;;;;;;;;;;-0.50;92.30;;;;;;5018274;28;19925;-75
2022/01/25 03:32:40;;;;;;;;;;;-0.50;92.20;;;;;;5059146;28;19932;-77
2022/01/25 03:35:07;;;;;;;;;;;-0.60;92.20;;;;;;5058321;28;20388;-75
2022/01/25 03:37:34;;;;;;;;;;;-0.60;92.20;;;;;;5067645;28;19932;-74
2022/01/25 03:40:01;;;;;;;;;;;-0.60;92.10;;;;;;5070048;28;20411;-75
2022/01/25 03:42:27;;;;;;;;;;;-0.60;92.10;;;;;;5062625;28;20384;-76
2022/01/25 03:44:56;;;;;;;;;;;-0.60;92.00;;;;;;5055602;28;19925;-76
2022/01/25 03:47:31;;;;;;;;;;;-0.70;92.00;;;;;;5025629;28;19925;-75
2022/01/25 03:49:58;;;;;;;;;;;-0.70;92.00;;;;;;5055519;28;20042;-77
2022/01/25 03:52:33;;;;;;;;;;;-0.70;92.10;;;;;;5058807;28;20272;-76
2022/01/25 03:55:00;;;;;;;;;;;-0.80;92.20;;;;;;5055707;28;19975;-79
2022/01/25 03:57:26;;;;;;;;;;;-0.80;92.70;;;;;;5056240;28;20005;-76
2022/01/25 03:59:55;;;;;;;;;;;-0.80;92.30;;;;;;5071152;28;19978;-76
2022/01/25 04:02:23;;;;;;;;;;;-0.80;92.30;;;;;;5070823;28;19933;-77
2022/01/25 04:04:50;;;;;;;;;;;-0.80;92.30;;;;;;5071949;28;19924;-75
2022/01/25 04:07:26;;;;;;;;;;;-0.80;92.40;;;;;;5068685;28;19928;-76
2022/01/25 04:09:53;;;;;;;;;;;-0.80;92.30;;;;;;5050831;28;19967;-79
2022/01/25 04:12:20;;;;;;;;;;;-0.90;92.20;;;;;;5033173;28;19952;-76
2022/01/25 04:14:47;;;;;;;;;;;-0.90;92.20;;;;;;5057086;28;19928;-82
2022/01/25 04:17:18;;;;;;;;;;;-0.90;92.20;;;;;;5051125;28;20286;-78
2022/01/25 04:19:58;;;;;;;;;;;-1.00;92.20;;;;;;5047207;28;20389;-81
2022/01/25 04:27:37;;;;;;;;;;;-1.00;92.40;;;;;;5059045;28;19928;-77
2022/01/25 04:30:04;;;;;;;;;;;-1.10;92.40;;;;;;5050397;28;19932;-79
2022/01/25 04:32:42;;;;;;;;;;;-1.10;92.40;;;;;;5050367;28;19925;-81
2022/01/25 04:35:13;;;;;;;;;;;-1.10;92.50;;;;;;5038541;28;19925;-77
2022/01/25 04:49:05;;;;;;;;;;;-1.20;92.40;;;;;;5059624;28;19928;-77
2022/01/25 04:57:08;;;;;;;;;;;-1.30;92.50;;;;;;5062832;28;19932;-77
2022/01/25 04:59:40;;;;;;;;;;;-1.30;92.40;;;;;;5047891;28;20389;-80
2022/01/25 05:02:13;;;;;;;;;;;-1.30;92.30;;;;;;5070700;28;19928;-81
2022/01/25 05:04:57;;;;;;;;;;;-1.40;92.30;;;;;;5054520;28;19924;-77
2022/01/25 05:07:28;;;;;;;;;;;-1.40;92.40;;;;;;5073604;28;19989;-77
2022/01/25 05:09:55;;;;;;;;;;;-1.40;92.40;;;;;;5073121;28;19978;-81
2022/01/25 05:12:33;;;;;;;;;;;-1.50;92.30;;;;;;5047551;28;19951;-77
2022/01/25 05:15:16;;;;;;;;;;;-1.50;92.30;;;;;;5074078;28;19958;-80
2022/01/25 05:17:45;;;;;;;;;;;-1.50;92.70;;;;;;5035783;28;19925;-77
2022/01/25 05:22:58;;;;;;;;;;;-1.60;92.90;;;;;;5041466;28;19925;-81
2022/01/25 05:25:25;;;;;;;;;;;-1.60;92.80;;;;;;5074710;28;19924;-81
2022/01/25 05:27:51;;;;;;;;;;;-1.60;92.60;;;;;;5073638;28;20351;-82
2022/01/25 05:30:18;;;;;;;;;;;-1.60;92.50;;;;;;5056613;28;19928;-77
2022/01/25 05:32:45;;;;;;;;;;;-1.70;92.20;;;;;;5052528;28;20286;-78
2022/01/25 05:35:12;;;;;;;;;;;-1.70;92.20;;;;;;5051517;28;19959;-79
2022/01/25 05:37:42;;;;;;;;;;;-1.80;92.10;;;;;;5048541;28;19925;-81
2022/01/25 05:40:14;;;;;;;;;;;-1.80;92.00;;;;;;5039016;28;19975;-77
2022/01/25 05:42:51;;;;;;;;;;;-1.80;92.00;;;;;;5052841;28;19925;-77
2022/01/25 05:45:37;;;;;;;;;;;-1.80;92.00;;;;;;5054945;28;19928;-77
2022/01/25 05:48:04;;;;;;;;;;;-1.80;92.10;;;;;;5051467;28;19925;-81
2022/01/25 05:50:33;;;;;;;;;;;-1.90;92.20;;;;;;5050623;28;19924;-77
2022/01/25 05:53:00;;;;;;;;;;;-1.90;92.40;;;;;;5044200;28;20377;-78
2022/01/25 05:55:26;;;;;;;;;;;-1.90;92.60;;;;;;5073010;28;19925;-78
2022/01/25 05:57:53;;;;;;;;;;;-1.90;92.90;;;;;;5041777;28;19925;-79
2022/01/25 06:00:20;;;;;;;;;;;-1.90;92.90;;;;;;5043010;28;19925;-77
2022/01/25 06:02:53;;;;;;;;;;;-1.90;92.70;;;;;;5070679;28;19939;-76
2022/01/25 06:05:20;;;;;;;;;;;-1.80;92.80;;;;;;5039954;28;20412;-77
2022/01/25 06:07:46;;;;;;;;;;;-1.80;92.70;;;;;;5031714;28;20006;-78
2022/01/25 06:10:13;;;;;;;;;;;-1.80;92.80;;;;;;5045950;28;19925;-76
2022/01/25 06:12:44;;;;;;;;;;;-1.80;92.90;;;;;;5038444;28;19925;-76
2022/01/25 06:15:11;;;;;;;;;;;-1.80;93.10;;;;;;5043480;28;19925;-77
2022/01/25 06:17:38;;;;;;;;;;;-1.80;93.00;;;;;;5043692;28;19924;-77
2022/01/25 06:20:06;;;;;;;;;;;-1.80;93.10;;;;;;5060418;28;19948;-77
2022/01/25 06:22:32;;;;;;;;;;;-1.70;93.10;;;;;;5051084;28;19942;-77
2022/01/25 06:24:59;;;;;;;;;;;-1.70;93.10;;;;;;5052629;28;19974;-78
2022/01/25 06:27:26;;;;;;;;;;;-1.80;93.00;;;;;;5053649;28;19925;-77
2022/01/25 06:29:53;;;;;;;;;;;-1.70;93.10;;;;;;5070032;28;19932;-78
2022/01/25 06:32:20;;;;;;;;;;;-1.80;93.20;;;;;;5036627;28;20400;-77
2022/01/25 06:34:47;;;;;;;;;;;-1.80;93.20;;;;;;5040304;28;19974;-78
2022/01/25 06:37:14;;;;;;;;;;;-1.70;93.20;;;;;;5048657;28;19963;-77
2022/01/25 06:39:42;;;;;;;;;;;-1.70;93.10;;;;;;5057886;28;19925;-79
2022/01/25 06:42:09;;;;;;;;;;;-1.70;93.20;;;;;;5068458;28;20507;-77
2022/01/25 06:44:37;;;;;;;;;;;-1.70;93.10;;;;;;5041201;28;19925;-78
2022/01/25 06:47:04;;;;;;;;;;;-1.70;93.10;;;;;;5059398;28;19933;-80
2022/01/25 06:49:33;;;;;;;;;;;-1.70;93.00;;;;;;5052154;28;20335;-76
2022/01/25 06:52:09;;;;;;;;;;;-1.70;93.00;;;;;;5063231;28;20320;-80
2022/01/25 06:54:36;;;;;;;;;;;-1.70;92.90;;;;;;5063150;28;20380;-77
2022/01/25 06:57:03;;;;;;;;;;;-1.70;92.80;;;;;;5051988;28;20393;-79
2022/01/25 06:59:30;;;;;;;;;;;-1.80;92.70;;;;;;5048700;28;19924;-77
2022/01/25 07:01:57;;;;;;;;;;;-1.80;92.80;;;;;;5064397;28;19928;-80
2022/01/25 07:04:24;;;;;;;;;;;-1.80;92.90;;;;;;5041178;28;19925;-80
2022/01/25 07:06:50;;;;;;;;;;;-1.80;92.90;;;;;;5052886;28;19930;-79
2022/01/25 07:09:17;;;;;;;;;;;-1.80;92.90;;;;;;5071014;28;19931;-77
2022/01/25 07:11:44;;;;;;;;;;;-1.90;93.00;;;;;;5037170;28;19926;-78
2022/01/25 07:14:12;;;;;;;;;;;-1.90;93.10;;;;;;5065366;28;20505;-80
2022/01/25 07:16:39;;;;;;;;;;;-1.90;93.20;;;;;;5041004;28;19978;-77
2022/01/25 07:19:06;;;;;;;;;;;-2.00;93.20;;;;;;5050569;28;19933;-77
2022/01/25 07:21:32;;;;;;;;;;;-2.00;93.40;;;;;;5024223;28;19952;-77
2022/01/25 07:23:59;;;;;;;;;;;-2.00;93.50;;;;;;5027762;28;19932;-77
2022/01/25 07:26:26;;;;;;;;;;;-2.00;93.50;;;;;;5021684;28;19933;-79
2022/01/25 07:28:53;;;;;;;;;;;-2.00;93.60;;;;;;5017295;28;20382;-77
2022/01/25 07:31:21;;;;;;;;;;;-1.90;93.60;;;;;;5027203;28;19925;-77
2022/01/25 07:33:59;;;;;;;;;;;-1.90;93.70;;;;;;5043505;28;19929;-80
2022/01/25 07:36:27;;;;;;;;;;;-1.90;93.60;;;;;;5049166;28;19980;-77
2022/01/25 07:38:54;;;;;;;;;;;-1.90;93.60;;;;;;5027567;28;19929;-79
2022/01/25 07:41:26;;;;;;;;;;;-1.80;93.60;;;;;;5062744;28;20340;-77
2022/01/25 07:43:57;;;;;;;;;;;-1.80;93.50;;;;;;5062637;28;19925;-79
2022/01/25 07:46:29;;;;;;;;;;;-1.80;93.50;;;;;;5031056;28;20353;-78
2022/01/25 07:49:00;;;;;;;;;;;-1.80;93.50;;;;;;5030114;28;19925;-81
2022/01/25 07:51:27;;;;;;;;;;;-1.80;93.40;;;;;;5032219;28;19928;-79
2022/01/25 07:53:54;;;;;;;;;;;-1.80;93.50;;;;;;5047101;28;19925;-77
2022/01/25 07:56:20;;;;;;;;;;;-1.90;93.50;;;;;;5021049;28;19929;-77
2022/01/25 07:58:47;;;;;;;;;;;-2.00;93.60;;;;;;5027353;28;19933;-79
2022/01/25 08:01:15;;;;;;;;;;;-2.00;93.60;;;;;;5055444;28;19929;-77
2022/01/25 08:03:43;;;;;;;;;;;-2.00;93.70;;;;;;5031352;28;19958;-80
2022/01/25 08:06:22;;;;;;;;;;;-2.00;93.80;;;;;;5022696;28;20466;-80
2022/01/25 08:08:51;;;;;;;;;;;-2.00;93.80;;;;;;5027433;28;19925;-78
2022/01/25 08:11:35;;;;;;;;;;;-2.10;93.90;;;;;;5041923;28;19925;-78
2022/01/25 08:14:19;;;;;;;;;;;-2.10;94.00;;;;;;5024984;28;19929;-80
2022/01/25 08:16:58;;;;;;;;;;;-2.10;94.00;;;;;;5045229;28;19929;-77
2022/01/25 08:19:42;;;;;;;;;;;-2.10;94.10;;;;;;5028605;28;19925;-77
2022/01/25 08:22:13;;;;;;;;;;;-2.00;94.10;;;;;;5030303;28;19931;-79
2022/01/25 08:25:11;;;;;;;;;;;-2.00;93.90;;;;;;5019506;28;19925;-77
2022/01/25 08:27:49;;;;;;;;;;;-2.00;94.00;;;;;;5020824;28;19972;-79
2022/01/25 08:30:33;;;;;;;;;;;-1.90;94.00;;;;;;5034922;28;19971;-78
2022/01/25 08:33:30;;;;;;;;;;;-2.00;93.90;;;;;;5032892;28;20467;-78
2022/01/25 08:36:19;;;;;;;;;;;-1.90;94.00;;;;;;4974338;28;19922;-79
2022/01/25 08:38:54;;;;;;;;;;;-2.00;93.80;;;;;;4958126;28;19954;-78
2022/01/25 08:41:35;;;;;;;;;;;-2.10;93.90;;;;;;4967410;28;19930;-77
2022/01/25 08:44:21;;;;;;;;;;;-2.10;94.00;;;;;;4968605;28;19922;-79
2022/01/25 08:47:20;;;;;;;;;;;-2.10;94.00;;;;;;4924663;28;20434;-77
2022/01/25 08:50:05;;;;;;;;;;;-2.10;94.10;;;;;;4917372;29;19962;-77
2022/01/25 08:52:52;;;;;;;;;;;-2.10;94.10;;;;;;4882378;29;19999;-77
2022/01/25 08:55:32;;;;;;;;;;;-2.10;94.10;;;;;;4884351;29;20377;-77
2022/01/25 08:58:06;;;;;;;;;;;-2.10;93.90;;;;;;4898163;29;20312;-79
2022/01/25 09:00:33;;;;;;;;;;;-2.00;94.00;;;;;;4879686;29;19931;-79
2022/01/25 09:03:00;;;;;;;;;;;-2.00;94.00;;;;;;4879189;29;20365;-79
2022/01/25 09:05:28;;;;;;;;;;;-1.90;94.00;;;;;;4875819;29;19931;-77
2022/01/25 09:07:57;;;;;;;;;;;-1.80;93.90;;;;;;4879981;29;20411;-80
2022/01/25 09:10:24;;;;;;;;;;;-1.90;93.70;;;;;;4893296;29;19930;-77
2022/01/25 09:12:52;;;;;;;;;;;-1.80;93.70;;;;;;4934434;28;19929;-77
2022/01/25 09:15:19;;;;;;;;;;;-1.80;93.60;;;;;;4974172;28;19945;-77
2022/01/25 09:17:45;;;;;;;;;;;-1.70;93.70;;;;;;4993224;28;20305;-78
2022/01/25 09:20:13;;;;;;;;;;;-1.70;93.70;;;;;;5036581;28;19929;-77
2022/01/25 09:22:40;;;;;;;;;;;-1.60;93.60;;;;;;5055848;28;19931;-78
2022/01/25 09:25:27;;;;;;;;;;;-1.50;93.50;;;;;;5049676;28;20413;-77
2022/01/25 09:27:54;;;;;;;;;;;-1.60;93.30;;;;;;5049358;28;19982;-80
2022/01/25 09:30:21;;;;;;;;;;;-1.60;93.20;;;;;;5052016;28;19928;-80
2022/01/25 09:32:47;;;;;;;;;;;-1.50;93.20;;;;;;5071130;28;19931;-79
2022/01/25 09:35:15;;;;;;;;;;;-1.50;93.20;;;;;;5072873;28;19924;-80
2022/01/25 09:37:41;;;;;;;;;;;-1.40;93.30;;;;;;5037274;28;19925;-79
2022/01/25 09:40:09;;;;;;;;;;;-1.30;93.20;;;;;;5052716;28;19925;-77
2022/01/25 09:42:37;;;;;;;;;;;-1.30;93.10;;;;;;5033093;28;20355;-77
2022/01/25 09:45:05;;;;;;;;;;;-1.20;93.00;;;;;;5049235;28;19925;-78
2022/01/25 09:47:32;;;;;;;;;;;-1.20;93.00;;;;;;5066488;28;19928;-79
2022/01/25 09:49:58;;;;;;;;;;;-1.10;93.10;;;;;;5052978;28;19928;-77
2022/01/25 09:52:27;;;;;;;;;;;-1.00;93.00;;;;;;5038944;28;20304;-78
2022/01/25 09:54:59;;;;;;;;;;;-0.90;92.80;;;;;;5052565;28;19978;-77
2022/01/25 09:57:26;;;;;;;;;;;-0.90;92.60;;;;;;5051360;28;20397;-78
2022/01/25 09:59:53;;;;;;;;;;;-0.80;92.60;;;;;;5056362;28;19924;-80
2022/01/25 10:02:43;;;;;;;;;;;-0.70;92.70;;;;;;5041040;28;19925;-77
2022/01/25 10:05:28;;;;;;;;;;;-0.50;92.70;;;;;;5055876;28;20398;-80
2022/01/25 10:08:08;;;;;;;;;;;-0.30;92.80;;;;;;5054594;28;19929;-78
2022/01/25 10:10:38;;;;;;;;;;;-0.10;92.60;;;;;;5052317;28;19928;-77
2022/01/25 10:13:11;;;;;;;;;;;0.20;92.70;;;;;;5051828;28;20286;-77
2022/01/25 10:15:38;;;;;;;;;;;0.40;92.50;;;;;;5049553;28;20405;-78
2022/01/25 10:18:13;;;;;;;;;;;0.60;92.20;;;;;;5033226;28;19932;-79
2022/01/25 10:20:41;;;;;;;;;;;0.70;91.60;;;;;;5033382;28;19933;-80
2022/01/25 10:23:11;;;;;;;;;;;1.00;91.40;;;;;;5054121;28;19960;-80
2022/01/25 10:25:42;;;;;;;;;;;1.10;91.20;;;;;;5047210;28;19929;-79
2022/01/25 10:28:13;;;;;;;;;;;1.30;91.10;;;;;;5045332;28;19980;-80
2022/01/25 10:30:46;;;;;;;;;;;1.50;91.00;;;;;;5046865;28;19978;-77
2022/01/25 10:33:51;;;;;;;;;;;1.60;90.40;;;;;;5051581;28;19925;-80
2022/01/25 10:36:39;;;;;;;;;;;1.80;90.10;;;;;;5037808;28;20020;-77
2022/01/25 10:39:10;;;;;;;;;;;2.10;89.10;;;;;;5043170;28;19928;-79
2022/01/25 10:41:38;;;;;;;;;;;2.30;89.00;;;;;;5055852;28;19958;-77
2022/01/25 10:44:06;;;;;;;;;;;2.50;89.40;;;;;;5073365;28;19924;-77
2022/01/25 10:46:34;;;;;;;;;;;2.60;88.60;;;;;;5053795;28;19925;-77
2022/01/25 10:49:03;;;;;;;;;;;2.80;87.90;;;;;;5073026;28;19978;-77
2022/01/25 10:51:30;;;;;;;;;;;2.80;85.80;;;;;;5029691;28;20389;-77
2022/01/25 10:54:01;;;;;;;;;;;2.90;85.10;;;;;;5039992;28;19929;-80
2022/01/25 10:56:36;;;;;;;;;;;3.00;84.50;;;;;;5035772;28;20299;-80
2022/01/25 10:59:03;;;;;;;;;;;3.10;84.30;;;;;;5040819;28;19933;-78
2022/01/25 11:01:35;;;;;;;;;;;3.10;84.20;;;;;;5071613;28;19924;-77
2022/01/25 11:04:07;;;;;;;;;;;3.10;84.30;;;;;;5036920;28;19977;-80
2022/01/25 11:06:38;;;;;;;;;;;3.20;83.60;;;;;;5038622;28;19971;-77
2022/01/25 11:09:06;;;;;;;;;;;3.30;84.10;;;;;;5051627;28;20332;-78
2022/01/25 11:11:37;;;;;;;;;;;3.40;82.60;;;;;;5052063;28;19986;-80
2022/01/25 11:16:51;;;;;;;;;;;3.60;80.30;;;;;;5053528;28;19925;-77
2022/01/25 11:19:19;;;;;;;;;;;3.70;80.60;;;;;;5035882;28;20420;-80
2022/01/25 11:21:47;;;;;;;;;;;3.80;80.10;;;;;;5044844;28;19928;-77
2022/01/25 11:24:15;;;;;;;;;;;3.90;79.90;;;;;;5044444;28;20389;-77
2022/01/25 11:26:43;;;;;;;;;;;4.10;78.70;;;;;;5045234;28;20368;-75
2022/01/25 11:29:10;;;;;;;;;;;4.20;77.70;;;;;;5072110;28;19929;-77
2022/01/25 11:31:39;;;;;;;;;;;4.30;77.10;;;;;;5051079;28;20705;-80
2022/01/25 11:34:08;;;;;;;;;;;4.40;77.10;;;;;;5037954;28;19924;-77
2022/01/25 11:36:46;;;;;;;;;;;4.60;76.80;;;;;;5060531;28;19974;-80
2022/01/25 11:39:16;;;;;;;;;;;4.70;76.20;;;;;;5053533;28;20392;-81
2022/01/25 11:41:42;;;;;;;;;;;4.90;75.80;;;;;;5047014;28;19936;-75
2022/01/25 11:44:11;;;;;;;;;;;5.00;73.70;;;;;;5046381;28;19928;-80
2022/01/25 11:46:39;;;;;;;;;;;5.10;72.40;;;;;;5053070;28;19924;-78
2022/01/25 11:49:14;;;;;;;;;;;5.10;73.70;;;;;;5058043;28;19932;-77
2022/01/25 11:51:42;;;;;;;;;;;5.20;74.10;;;;;;5024030;28;19925;-77
2022/01/25 11:54:09;;;;;;;;;;;5.30;74.80;;;;;;5047830;28;20188;-77
2022/01/25 11:56:37;;;;;;;;;;;5.30;74.30;;;;;;5048421;28;20011;-78
2022/01/25 11:59:05;;;;;;;;;;;5.40;74.40;;;;;;5052101;28;19925;-80
2022/01/25 12:01:32;;;;;;;;;;;5.50;74.40;;;;;;5022969;28;19944;-78
2022/01/25 12:04:02;;;;;;;;;;;5.60;74.20;;;;;;5030586;28;20388;-78
2022/01/25 12:06:33;;;;;;;;;;;5.60;73.80;;;;;;5031401;28;19925;-77
2022/01/25 12:11:49;;;;;;;;;;;5.80;72.50;;;;;;5045280;28;19975;-77
2022/01/25 12:14:18;;;;;;;;;;;5.90;72.40;;;;;;5034966;28;19925;-77
2022/01/25 12:16:47;;;;;;;;;;;5.80;71.80;;;;;;5026084;28;19932;-78
2022/01/25 12:19:38;;;;;;;;;;;5.80;72.10;;;;;;5026344;28;19960;-77
2022/01/25 12:22:14;;;;;;;;;;;5.90;72.30;;;;;;5012574;28;19926;-78
2022/01/25 12:24:42;;;;;;;;;;;6.00;71.60;;;;;;5028767;28;19925;-79
2022/01/25 12:27:19;;;;;;;;;;;6.20;70.80;;;;;;5012225;28;19929;-76
2022/01/25 12:29:57;;;;;;;;;;;6.20;70.40;;;;;;5028434;28;19932;-76
2022/01/25 12:32:24;;;;;;;;;;;6.30;70.70;;;;;;5038622;28;19925;-77
2022/01/25 12:34:56;;;;;;;;;;;6.20;69.50;;;;;;5031644;28;19983;-78
2022/01/25 12:37:42;;;;;;;;;;;6.00;70.10;;;;;;5031945;28;20026;-77
2022/01/25 12:40:24;;;;;;;;;;;6.10;71.40;;;;;;5034292;28;19975;-77
2022/01/25 12:42:55;;;;;;;;;;;6.20;70.90;;;;;;5029806;28;19925;-76
2022/01/25 12:45:23;;;;;;;;;;;6.30;70.40;;;;;;5032554;28;19928;-76
2022/01/25 12:47:54;;;;;;;;;;;6.30;70.20;;;;;;5031984;28;19929;-78
2022/01/25 12:50:22;;;;;;;;;;;6.30;70.20;;;;;;5037725;28;19925;-78
2022/01/25 12:52:49;;;;;;;;;;;6.20;70.80;;;;;;5034031;28;20266;-78
2022/01/25 12:55:16;;;;;;;;;;;6.20;70.80;;;;;;5057071;28;19931;-77
2022/01/25 12:57:46;;;;;;;;;;;6.10;70.10;;;;;;5064101;28;19925;-79
2022/01/25 13:00:14;;;;;;;;;;;6.20;70.70;;;;;;5035786;28;19931;-79
2022/01/25 13:02:41;;;;;;;;;;;6.20;70.30;;;;;;5048566;28;19982;-76
2022/01/25 13:05:14;;;;;;;;;;;6.30;70.00;;;;;;5056999;28;20391;-77
2022/01/25 13:07:42;;;;;;;;;;;6.30;68.30;;;;;;5053339;28;19928;-82
2022/01/25 13:10:12;;;;;;;;;;;6.40;68.60;;;;;;5063701;28;19933;-81
2022/01/25 13:12:56;;;;;;;;;;;6.50;69.10;;;;;;5057045;28;19928;-78
2022/01/25 13:15:50;;;;;;;;;;;6.70;67.70;;;;;;5056264;28;19971;-76
2022/01/25 13:18:14;;;;;;;;;;;6.70;66.50;;;;;;5067965;28;19960;-78
2022/01/25 13:20:57;;;;;;;;;;;6.80;66.90;;;;;;5036712;28;20385;-77
2022/01/25 13:23:25;;;;;;;;;;;6.90;66.00;;;;;;5045424;28;20488;-76
2022/01/25 13:25:58;;;;;;;;;;;6.80;65.60;;;;;;5037043;28;19939;-77
2022/01/25 13:31:20;;;;;;;;;;;6.90;65.90;;;;;;5040511;28;20369;-80
2022/01/25 13:33:48;;;;;;;;;;;6.90;65.30;;;;;;5045573;28;20389;-80
2022/01/25 13:36:16;;;;;;;;;;;6.90;65.50;;;;;;5033428;28;20416;-77
2022/01/25 13:38:43;;;;;;;;;;;7.00;65.30;;;;;;5024881;28;19929;-77
2022/01/25 13:46:29;;;;;;;;;;;7.20;64.80;;;;;;5065005;28;19932;-79
2022/01/25 13:48:57;;;;;;;;;;;7.20;64.10;;;;;;5074113;28;20011;-79
2022/01/25 13:51:25;;;;;;;;;;;7.30;64.10;;;;;;5072988;28;19929;-78
2022/01/25 13:53:54;;;;;;;;;;;7.20;64.10;;;;;;5050910;28;19929;-77
2022/01/25 13:56:22;;;;;;;;;;;7.10;64.10;;;;;;5063425;28;20384;-80
2022/01/25 13:58:50;;;;;;;;;;;7.10;64.80;;;;;;5039765;28;20316;-78
2022/01/25 14:01:18;;;;;;;;;;;7.10;64.40;;;;;;5037716;28;19940;-80
2022/01/25 14:03:51;;;;;;;;;;;7.10;64.20;;;;;;5024573;28;20411;-76
2022/01/25 14:06:23;;;;;;;;;;;7.10;64.10;;;;;;5041335;28;19924;-77
2022/01/25 14:08:51;;;;;;;;;;;7.20;63.90;;;;;;5062251;28;19929;-80
2022/01/25 14:11:30;;;;;;;;;;;7.20;64.00;;;;;;5035185;28;19932;-78
2022/01/25 14:25:34;;;;;;;;;;;6.70;65.10;;;;;;5049334;28;20343;-77
2022/01/25 14:28:02;;;;;;;;;;;6.70;66.00;;;;;;5072896;28;19929;-76
2022/01/25 14:30:30;;;;;;;;;;;6.80;66.00;;;;;;5041457;28;19925;-80
2022/01/25 14:33:00;;;;;;;;;;;6.70;65.50;;;;;;5035349;28;19932;-76
2022/01/25 14:35:27;;;;;;;;;;;6.70;65.80;;;;;;5071963;28;19931;-77
2022/01/25 14:38:02;;;;;;;;;;;6.70;65.80;;;;;;5047544;28;20019;-79
2022/01/25 14:40:29;;;;;;;;;;;6.60;65.90;;;;;;5034394;28;19929;-76
2022/01/25 14:42:56;;;;;;;;;;;6.40;66.30;;;;;;5046183;28;19931;-80
2022/01/25 14:45:23;;;;;;;;;;;6.30;66.60;;;;;;5070545;28;20377;-77
2022/01/25 14:47:53;;;;;;;;;;;6.40;67.10;;;;;;5054767;28;19932;-77
2022/01/25 14:50:24;;;;;;;;;;;6.40;66.80;;;;;;5032388;28;19925;-77
2022/01/25 14:53:01;;;;;;;;;;;6.40;66.50;;;;;;5048573;28;19925;-77
2022/01/25 14:55:29;;;;;;;;;;;6.40;66.40;;;;;;5053581;28;19931;-77
2022/01/25 14:59:23;;;;;;;;;;;6.30;66.20;;;;;;5072286;28;19974;-76
2022/01/25 15:00:52;;;;;;;;;;;6.30;66.40;;;;;;5053777;28;19932;-77
2022/01/25 15:03:21;;;;;;;;;;;6.30;66.40;;;;;;5072634;28;19974;-80
2022/01/25 15:05:49;;;;;;;;;;;6.40;66.70;;;;;;5034859;28;20274;-77
2022/01/25 15:08:17;;;;;;;;;;;6.30;66.60;;;;;;5034442;28;19928;-80
2022/01/25 15:10:46;;;;;;;;;;;6.30;66.70;;;;;;5023528;28;19932;-77
2022/01/25 15:13:23;;;;;;;;;;;6.20;66.80;;;;;;5025395;28;19932;-80
2022/01/25 15:15:56;;;;;;;;;;;6.20;67.10;;;;;;5031030;28;20323;-77
2022/01/25 15:18:23;;;;;;;;;;;6.20;67.00;;;;;;5042054;28;20417;-76
2022/01/25 15:20:50;;;;;;;;;;;6.10;67.00;;;;;;5042219;28;20416;-77
2022/01/25 15:23:21;;;;;;;;;;;6.10;67.40;;;;;;5052984;28;19925;-78
2022/01/25 15:25:56;;;;;;;;;;;6.00;67.40;;;;;;5030177;28;19932;-77
2022/01/25 15:28:24;;;;;;;;;;;6.00;67.60;;;;;;5031981;28;19925;-80
2022/01/25 15:30:51;;;;;;;;;;;5.90;67.70;;;;;;5026924;28;20285;-77
2022/01/25 15:33:17;;;;;;;;;;;5.90;67.90;;;;;;5029059;28;20283;-80
2022/01/25 15:35:44;;;;;;;;;;;5.80;68.00;;;;;;5038717;28;20320;-77
2022/01/25 15:38:16;;;;;;;;;;;5.80;69.30;;;;;;5028888;28;19925;-77
2022/01/25 15:40:43;;;;;;;;;;;5.70;68.50;;;;;;5031836;28;20443;-77
2022/01/25 15:43:21;;;;;;;;;;;5.60;68.90;;;;;;5031321;28;19925;-77
2022/01/25 15:48:42;;;;;;;;;;;5.40;69.30;;;;;;5030032;28;19976;-77
2022/01/25 15:51:09;;;;;;;;;;;5.30;69.70;;;;;;5030776;28;19925;-78
2022/01/25 15:53:35;;;;;;;;;;;5.20;70.00;;;;;;5029413;28;19925;-76
2022/01/25 15:56:03;;;;;;;;;;;5.20;70.10;;;;;;5044070;28;19932;-80
2022/01/25 15:58:30;;;;;;;;;;;5.10;70.40;;;;;;5036164;28;19925;-79
2022/01/25 16:00:56;;;;;;;;;;;5.00;70.60;;;;;;5037812;28;21217;-77
2022/01/25 16:03:26;;;;;;;;;;;4.90;70.80;;;;;;5023564;28;19925;-76
2022/01/25 16:05:53;;;;;;;;;;;4.90;71.00;;;;;;5020110;28;19929;-77
2022/01/25 16:08:20;;;;;;;;;;;4.80;71.30;;;;;;5041742;28;19979;-76
2022/01/25 16:10:47;;;;;;;;;;;4.60;71.40;;;;;;5057688;28;20388;-77
2022/01/25 16:13:15;;;;;;;;;;;4.50;71.80;;;;;;5030646;28;19932;-78
2022/01/25 16:15:42;;;;;;;;;;;4.40;72.30;;;;;;5028649;28;19935;-77
2022/01/25 16:18:09;;;;;;;;;;;4.30;72.90;;;;;;5018738;28;19956;-77
2022/01/25 16:20:37;;;;;;;;;;;4.20;73.10;;;;;;5029986;28;19929;-77
2022/01/25 16:23:06;;;;;;;;;;;4.20;73.10;;;;;;5016733;28;19925;-80
2022/01/25 16:25:33;;;;;;;;;;;4.00;73.50;;;;;;5063608;28;19930;-77
2022/01/25 16:28:00;;;;;;;;;;;4.00;74.10;;;;;;5027729;28;19937;-77
2022/01/25 16:30:27;;;;;;;;;;;3.90;74.50;;;;;;5034971;28;19929;-78
2022/01/25 16:32:54;;;;;;;;;;;3.80;74.30;;;;;;5036634;28;20404;-79
2022/01/25 16:35:21;;;;;;;;;;;3.70;74.00;;;;;;5014769;28;19979;-77
2022/01/25 16:37:49;;;;;;;;;;;3.60;73.80;;;;;;5041941;28;20403;-77
2022/01/25 16:40:16;;;;;;;;;;;3.50;73.70;;;;;;5040705;28;19925;-80
2022/01/25 16:42:43;;;;;;;;;;;3.40;73.90;;;;;;5018840;28;19926;-80
2022/01/25 16:45:12;;;;;;;;;;;3.30;75.40;;;;;;5028098;28;19932;-77
2022/01/25 16:47:40;;;;;;;;;;;3.20;73.90;;;;;;5031166;28;20452;-77